createdAt,value
2023-05-14T00:00:49.080Z,5.65
2023-05-14T00:03:17.476Z,3.63
2023-05-14T00:05:46.946Z,4.80
2023-05-14T00:08:15.284Z,4.35
2023-05-14T00:10:43.344Z,4.47
2023-05-14T00:13:11.392Z,4.38
2023-05-14T00:15:39.864Z,5.32
2023-05-14T00:18:08.057Z,4.25
2023-05-14T00:20:36.413Z,5.50
2023-05-14T00:23:05.800Z,4.88
2023-05-14T00:25:34.078Z,5.47
2023-05-14T00:28:02.131Z,5.20
2023-05-14T00:30:30.615Z,6.45
2023-05-14T00:32:58.664Z,8.35
2023-05-14T00:35:26.977Z,9.55
2023-05-14T00:37:55.066Z,4.90
2023-05-14T00:40:27.539Z,8.35
2023-05-14T00:42:56.221Z,7.32
2023-05-14T00:45:24.593Z,5.13
2023-05-14T00:47:53.287Z,8.68
2023-05-14T00:50:22.123Z,9.57
2023-05-14T00:52:50.522Z,8.25
2023-05-14T00:55:19.157Z,9.07
2023-05-14T00:57:52.250Z,7.80
2023-05-14T01:00:20.965Z,8.55
2023-05-14T01:02:49.298Z,9.20
2023-05-14T01:05:17.608Z,9.75
2023-05-14T01:07:55.451Z,9.90
2023-05-14T01:10:29.262Z,10.18
2023-05-14T01:13:05.116Z,7.68
2023-05-14T01:15:35.944Z,8.60
2023-05-14T01:18:08.361Z,11.25
2023-05-14T01:20:36.826Z,9.63
2023-05-14T01:23:06.400Z,10.75
2023-05-14T01:25:35.264Z,16.00
2023-05-14T01:28:12.336Z,12.00
2023-05-14T01:30:46.183Z,9.07
2023-05-14T01:33:18.302Z,7.40
2023-05-14T01:35:49.660Z,7.55
2023-05-14T01:38:21.271Z,7.18
2023-05-14T01:40:51.540Z,6.85
2023-05-14T01:43:20.439Z,7.90
2023-05-14T01:45:48.978Z,6.45
2023-05-14T01:48:17.688Z,8.80
2023-05-14T01:50:45.911Z,11.98
2023-05-14T01:53:14.179Z,12.25
2023-05-14T01:55:43.824Z,6.57
2023-05-14T01:58:12.276Z,6.57
2023-05-14T02:00:40.423Z,6.35
2023-05-14T02:03:09.082Z,8.80
2023-05-14T02:05:37.274Z,7.43
2023-05-14T02:08:05.844Z,7.13
2023-05-14T02:10:34.033Z,7.40
2023-05-14T02:13:04.519Z,6.72
2023-05-14T02:15:32.663Z,6.30
2023-05-14T02:18:00.859Z,7.22
2023-05-14T02:20:28.937Z,7.97
2023-05-14T02:22:57.131Z,9.88
2023-05-14T02:25:25.462Z,9.50
2023-05-14T02:27:53.648Z,7.97
2023-05-14T02:30:23.452Z,7.03
2023-05-14T02:32:51.930Z,8.25
2023-05-14T02:35:20.155Z,7.25
2023-05-14T02:37:49.648Z,7.32
2023-05-14T02:40:17.826Z,8.13
2023-05-14T02:42:46.152Z,8.40
2023-05-14T02:45:14.190Z,7.95
2023-05-14T02:47:43.891Z,8.98
2023-05-14T02:50:12.368Z,21.90
2023-05-14T02:52:40.669Z,15.35
2023-05-14T02:55:10.074Z,11.60
2023-05-14T02:57:38.409Z,11.43
2023-05-14T03:00:09.092Z,9.27
2023-05-14T03:02:38.524Z,10.52
2023-05-14T03:05:09.343Z,8.57
2023-05-14T03:07:37.706Z,8.88
2023-05-14T03:10:09.095Z,6.88
2023-05-14T03:12:37.392Z,6.72
2023-05-14T03:15:05.843Z,6.38
2023-05-14T03:17:34.126Z,8.77
2023-05-14T03:20:02.197Z,6.40
2023-05-14T03:22:31.972Z,7.03
2023-05-14T03:24:59.998Z,7.13
2023-05-14T03:27:28.280Z,7.15
2023-05-14T03:29:56.403Z,9.00
2023-05-14T03:32:24.989Z,8.80
2023-05-14T03:34:53.071Z,7.80
2023-05-14T03:37:21.857Z,6.35
2023-05-14T03:39:51.313Z,8.55
2023-05-14T03:42:19.516Z,6.25
2023-05-14T03:44:49.103Z,8.73
2023-05-14T03:47:17.114Z,6.63
2023-05-14T03:49:45.517Z,8.00
2023-05-14T03:52:15.034Z,5.40
2023-05-14T03:54:45.477Z,6.25
2023-05-14T03:57:14.895Z,7.53
2023-05-14T03:59:43.420Z,6.55
2023-05-14T04:02:11.537Z,6.38
2023-05-14T04:04:40.275Z,6.38
2023-05-14T04:07:08.739Z,6.40
2023-05-14T04:09:37.086Z,7.18
2023-05-14T04:12:06.047Z,5.47
2023-05-14T04:14:36.687Z,7.75
2023-05-14T04:17:05.007Z,6.07
2023-05-14T04:19:33.169Z,6.65
2023-05-14T04:22:01.226Z,7.50
2023-05-14T04:24:29.529Z,7.68
2023-05-14T04:26:57.593Z,8.13
2023-05-14T04:29:25.950Z,7.78
2023-05-14T04:31:55.997Z,8.70
2023-05-14T04:34:24.424Z,5.72
2023-05-14T04:36:52.607Z,6.05
2023-05-14T04:39:22.701Z,5.93
2023-05-14T04:41:51.129Z,7.15
2023-05-14T04:44:19.433Z,12.43
2023-05-14T04:46:47.442Z,7.45
2023-05-14T04:49:17.077Z,6.90
2023-05-14T04:51:45.133Z,8.77
2023-05-14T04:54:13.541Z,5.97
2023-05-14T04:56:41.642Z,7.50
2023-05-14T04:59:09.850Z,6.57
2023-05-14T05:01:37.973Z,5.68
2023-05-14T05:04:06.427Z,6.00
2023-05-14T05:06:35.965Z,4.57
2023-05-14T05:09:04.488Z,5.57
2023-05-14T05:11:32.796Z,4.00
2023-05-14T05:14:00.968Z,4.28
2023-05-14T05:16:29.008Z,6.13
2023-05-14T05:18:57.339Z,4.35
2023-05-14T05:21:25.385Z,4.93
2023-05-14T05:23:55.052Z,5.70
2023-05-14T05:26:23.156Z,4.18
2023-05-14T05:28:51.303Z,5.40
2023-05-14T05:31:20.096Z,6.85
2023-05-14T05:33:48.437Z,10.35
2023-05-14T05:36:16.689Z,4.45
2023-05-14T05:38:44.806Z,5.30
2023-05-14T05:41:14.549Z,5.03
2023-05-14T05:43:42.569Z,5.38
2023-05-14T05:46:10.941Z,4.10
2023-05-14T05:48:39.055Z,7.80
2023-05-14T05:51:07.565Z,5.07
2023-05-14T05:53:35.625Z,4.65
2023-05-14T05:56:03.943Z,5.38
2023-05-14T05:58:33.351Z,4.85
2023-05-14T06:01:01.643Z,5.72
2023-05-14T06:03:29.733Z,3.55
2023-05-14T06:05:57.879Z,5.90
2023-05-14T06:08:25.907Z,3.38
2023-05-14T06:10:54.265Z,5.38
2023-05-14T06:13:22.303Z,4.85
2023-05-14T06:15:51.969Z,2.90
2023-05-14T06:18:19.994Z,4.60
2023-05-14T06:20:48.300Z,5.70
2023-05-14T06:23:16.358Z,2.83
2023-05-14T06:25:44.702Z,6.18
2023-05-14T06:28:12.750Z,3.10
2023-05-14T06:30:41.053Z,5.93
2023-05-14T06:33:10.689Z,5.07
2023-05-14T06:35:39.019Z,3.30
2023-05-14T06:38:07.064Z,4.18
2023-05-14T06:40:35.280Z,3.35
2023-05-14T06:43:03.336Z,4.32
2023-05-14T06:45:33.113Z,5.43
2023-05-14T06:48:01.484Z,5.10
2023-05-14T06:50:31.329Z,3.22
2023-05-14T06:52:59.383Z,3.20
2023-05-14T06:55:27.456Z,2.88
2023-05-14T06:57:55.628Z,2.88
2023-05-14T07:00:24.596Z,3.00
2023-05-14T07:02:53.017Z,2.97
2023-05-14T07:05:21.111Z,2.92
2023-05-14T07:07:50.632Z,5.40
2023-05-14T07:10:19.059Z,2.83
2023-05-14T07:12:47.147Z,2.70
2023-05-14T07:15:15.331Z,5.93
2023-05-14T07:17:43.419Z,2.42
2023-05-14T07:20:12.643Z,2.55
2023-05-14T07:22:40.928Z,3.33
2023-05-14T07:25:11.255Z,2.70
2023-05-14T07:27:39.442Z,2.00
2023-05-14T07:30:08.740Z,3.88
2023-05-14T07:32:37.106Z,3.50
2023-05-14T07:35:06.243Z,3.55
2023-05-14T07:37:34.649Z,2.45
2023-05-14T07:40:02.767Z,3.75
2023-05-14T07:42:36.608Z,5.55
2023-05-14T07:45:06.081Z,3.80
2023-05-14T07:47:35.067Z,4.22
2023-05-14T07:50:03.469Z,3.72
2023-05-14T07:52:31.761Z,2.25
2023-05-14T07:55:01.218Z,2.35
2023-05-14T07:57:29.595Z,3.00
2023-05-14T07:59:59.302Z,10.90
2023-05-14T08:02:28.257Z,4.13
2023-05-14T08:04:56.522Z,2.20
2023-05-14T08:07:24.895Z,2.80
2023-05-14T08:09:52.962Z,2.40
2023-05-14T08:12:21.248Z,2.92
2023-05-14T08:14:49.418Z,3.38
2023-05-14T08:17:19.046Z,2.95
2023-05-14T08:19:47.151Z,2.17
2023-05-14T08:22:15.510Z,3.70
2023-05-14T08:24:43.826Z,2.22
2023-05-14T08:27:12.136Z,3.65
2023-05-14T08:29:40.139Z,2.55
2023-05-14T08:32:16.033Z,2.00
2023-05-14T08:34:52.839Z,4.03
2023-05-14T08:37:21.123Z,3.55
2023-05-14T08:39:49.200Z,3.90
2023-05-14T08:42:21.870Z,2.72
2023-05-14T08:44:54.172Z,2.22
2023-05-14T08:47:24.928Z,3.10
2023-05-14T08:50:02.021Z,1.95
2023-05-14T08:52:30.660Z,3.35
2023-05-14T08:54:59.936Z,2.65
2023-05-14T08:57:29.925Z,2.22
2023-05-14T08:59:59.471Z,3.25
2023-05-14T09:02:31.708Z,1.95
2023-05-14T09:05:03.742Z,3.58
2023-05-14T09:07:35.389Z,3.40
2023-05-14T09:12:59.634Z,3.72
2023-05-14T09:15:29.059Z,3.70
2023-05-14T09:17:58.096Z,3.67
2023-05-14T09:20:28.445Z,2.13
2023-05-14T09:22:57.293Z,2.47
2023-05-14T09:25:28.723Z,3.33
2023-05-14T09:27:59.046Z,5.05
2023-05-14T09:30:32.177Z,4.38
2023-05-14T09:33:00.754Z,6.28
2023-05-14T09:35:30.173Z,2.90
2023-05-14T09:37:58.520Z,3.05
2023-05-14T09:40:26.761Z,2.97
2023-05-14T09:42:56.294Z,3.33
2023-05-14T09:45:24.521Z,3.50
2023-05-14T09:47:53.479Z,2.15
2023-05-14T09:50:21.905Z,2.20
2023-05-14T09:52:51.367Z,3.13
2023-05-14T09:55:21.329Z,3.25
2023-05-14T09:57:49.856Z,3.83
2023-05-14T10:00:19.367Z,2.47
2023-05-14T10:02:48.909Z,3.20
2023-05-14T10:05:17.754Z,2.53
2023-05-14T10:07:49.089Z,2.00
2023-05-14T10:10:22.206Z,2.58
2023-05-14T10:12:53.930Z,4.95
2023-05-14T10:15:25.409Z,2.92
2023-05-14T10:17:57.920Z,2.85
2023-05-14T10:20:27.795Z,5.68
2023-05-14T10:22:56.504Z,1.92
2023-05-14T10:25:26.498Z,5.10
2023-05-14T10:27:55.093Z,2.22
2023-05-14T10:30:24.430Z,1.70
2023-05-14T10:33:08.030Z,2.42
2023-05-14T10:36:02.010Z,2.73
2023-05-14T10:38:31.287Z,6.07
2023-05-14T10:41:02.939Z,2.15
2023-05-14T10:43:32.226Z,2.78
2023-05-14T10:46:01.487Z,2.20
2023-05-14T10:48:29.949Z,3.20
2023-05-14T10:50:59.061Z,3.35
2023-05-14T10:53:38.173Z,3.97
2023-05-14T10:56:10.228Z,3.85
2023-05-14T10:58:39.337Z,2.85
2023-05-14T11:01:08.936Z,2.15
2023-05-14T11:03:44.865Z,3.30
2023-05-14T11:06:16.178Z,3.58
2023-05-14T11:08:46.409Z,3.55
2023-05-14T11:11:16.350Z,2.15
2023-05-14T11:13:45.491Z,5.00
2023-05-14T11:16:23.441Z,4.72
2023-05-14T11:19:01.823Z,2.35
2023-05-14T11:21:31.854Z,2.63
2023-05-14T11:24:01.333Z,2.72
2023-05-14T11:26:32.551Z,6.03
2023-05-14T11:29:01.022Z,3.20
2023-05-14T11:31:29.333Z,2.72
2023-05-14T11:33:58.015Z,3.13
2023-05-14T11:36:27.735Z,2.13
2023-05-14T11:38:55.990Z,3.40
2023-05-14T11:41:24.544Z,2.67
2023-05-14T11:43:54.347Z,3.65
2023-05-14T11:46:22.609Z,3.42
2023-05-14T11:48:51.859Z,5.05
2023-05-14T11:51:20.028Z,3.30
2023-05-14T11:53:48.083Z,2.50
2023-05-14T11:56:16.473Z,3.75
2023-05-14T11:58:49.439Z,4.25
2023-05-14T12:01:19.243Z,4.22
2023-05-14T12:03:47.620Z,2.25
2023-05-14T12:06:16.027Z,2.58
2023-05-14T12:08:44.151Z,1.85
2023-05-14T12:11:12.414Z,2.85
2023-05-14T12:13:41.126Z,2.83
2023-05-14T12:16:09.390Z,1.83
2023-05-14T12:18:39.227Z,3.55
2023-05-14T12:21:08.839Z,1.90
2023-05-14T12:23:39.622Z,3.67
2023-05-14T12:26:09.870Z,1.70
2023-05-14T12:28:43.163Z,1.90
2023-05-14T12:31:11.520Z,4.32
2023-05-14T12:33:41.319Z,4.35
2023-05-14T12:36:21.280Z,3.05
2023-05-14T12:38:50.543Z,3.88
2023-05-14T12:41:18.849Z,1.80
2023-05-14T12:43:49.281Z,2.78
2023-05-14T12:46:17.520Z,2.03
2023-05-14T12:48:47.250Z,1.75
2023-05-14T12:51:15.477Z,3.70
2023-05-14T12:53:43.779Z,1.75
2023-05-14T12:56:12.479Z,4.40
2023-05-14T12:58:40.984Z,2.67
2023-05-14T13:01:09.095Z,2.83
2023-05-14T13:03:37.427Z,3.22
2023-05-14T13:06:07.122Z,2.60
2023-05-14T13:08:36.341Z,1.98
2023-05-14T13:11:04.406Z,2.88
2023-05-14T13:13:32.581Z,1.98
2023-05-14T13:16:00.991Z,2.28
2023-05-14T13:18:29.306Z,2.03
2023-05-14T13:20:57.360Z,3.85
2023-05-14T13:23:27.330Z,4.38
2023-05-14T13:25:55.454Z,1.73
2023-05-14T13:28:23.809Z,1.75
2023-05-14T13:31:06.885Z,2.05
2023-05-14T13:33:37.027Z,2.22
2023-05-14T13:36:05.855Z,2.65
2023-05-14T13:38:35.936Z,2.30
2023-05-14T13:41:04.158Z,3.17
2023-05-14T13:43:32.579Z,2.47
2023-05-14T13:46:01.087Z,2.30
2023-05-14T13:48:31.072Z,2.78
2023-05-14T13:50:59.233Z,3.20
2023-05-14T13:53:27.765Z,2.85
2023-05-14T13:55:58.481Z,2.53
2023-05-14T13:58:26.862Z,4.43
2023-05-14T14:00:55.544Z,2.72
2023-05-14T14:03:23.676Z,2.40
2023-05-14T14:05:52.236Z,2.75
2023-05-14T14:08:23.462Z,2.78
2023-05-14T14:10:54.570Z,3.13
2023-05-14T14:13:24.548Z,3.58
2023-05-14T14:15:52.925Z,3.50
2023-05-14T14:18:21.247Z,3.05
2023-05-14T14:20:49.451Z,2.38
2023-05-14T14:23:17.756Z,3.63
2023-05-14T14:25:46.031Z,4.43
2023-05-14T14:28:14.154Z,6.40
2023-05-14T14:30:43.884Z,4.43
2023-05-14T14:33:12.440Z,2.55
2023-05-14T14:35:40.704Z,4.03
2023-05-14T14:38:08.804Z,3.47
2023-05-14T14:40:36.985Z,2.63
2023-05-14T14:43:05.190Z,2.15
2023-05-14T14:45:33.455Z,2.95
2023-05-14T14:48:25.252Z,4.50
2023-05-14T14:50:53.770Z,2.17
2023-05-14T14:53:21.873Z,2.53
2023-05-14T14:55:50.793Z,2.33
2023-05-14T14:58:19.890Z,2.45
2023-05-14T15:00:48.092Z,2.42
2023-05-14T15:03:16.596Z,2.45
2023-05-14T15:05:46.568Z,2.58
2023-05-14T15:08:14.704Z,2.70
2023-05-14T15:10:43.303Z,3.20
2023-05-14T15:13:11.832Z,3.05
2023-05-14T15:15:40.142Z,3.45
2023-05-14T15:18:08.447Z,2.75
2023-05-14T15:20:36.645Z,4.20
2023-05-14T15:23:06.173Z,2.25
2023-05-14T15:25:34.424Z,3.83
2023-05-14T15:28:02.476Z,2.00
2023-05-14T15:30:31.282Z,2.45
2023-05-14T15:32:59.688Z,2.50
2023-05-14T15:35:27.988Z,1.90
2023-05-14T15:37:57.868Z,2.58
2023-05-14T15:40:28.327Z,3.75
2023-05-14T15:42:56.403Z,2.85
2023-05-14T15:45:24.647Z,3.08
2023-05-14T15:47:52.830Z,2.45
2023-05-14T15:50:21.598Z,5.20
2023-05-14T15:52:49.890Z,4.28
2023-05-14T15:55:18.073Z,2.88
2023-05-14T15:57:47.654Z,2.60
2023-05-14T16:00:16.520Z,3.53
2023-05-14T16:02:44.871Z,3.90
2023-05-14T16:05:13.056Z,3.13
2023-05-14T16:07:41.214Z,3.88
2023-05-14T16:10:10.269Z,4.88
2023-05-14T16:12:38.340Z,4.20
2023-05-14T16:15:09.214Z,6.88
2023-05-14T16:17:37.440Z,4.70
2023-05-14T16:20:06.535Z,4.85
2023-05-14T16:22:34.723Z,4.22
2023-05-14T16:25:04.534Z,4.45
2023-05-14T16:27:33.003Z,5.28
2023-05-14T16:30:01.077Z,3.85
2023-05-14T16:32:30.822Z,4.28
2023-05-14T16:34:58.942Z,3.08
2023-05-14T16:37:27.231Z,3.38
2023-05-14T16:39:55.332Z,3.53
2023-05-14T16:42:23.395Z,4.60
2023-05-14T16:44:51.585Z,2.80
2023-05-14T16:47:19.756Z,3.55
2023-05-14T16:49:49.325Z,3.50
2023-05-14T16:52:17.404Z,3.90
2023-05-14T16:54:45.807Z,3.88
2023-05-14T16:57:13.934Z,4.72
2023-05-14T16:59:42.143Z,4.13
2023-05-14T17:02:10.891Z,3.95
2023-05-14T17:04:41.968Z,5.30
2023-05-14T17:07:11.849Z,3.42
2023-05-14T17:09:39.883Z,6.80
2023-05-14T17:12:09.696Z,4.10
2023-05-14T17:14:37.763Z,3.47
2023-05-14T17:17:08.411Z,2.85
2023-05-14T17:19:36.502Z,4.47
2023-05-14T17:22:05.840Z,3.08
2023-05-14T17:24:36.583Z,6.30
2023-05-14T17:27:05.083Z,5.45
2023-05-14T17:29:33.505Z,4.68
2023-05-14T17:32:03.484Z,4.18
2023-05-14T17:34:32.036Z,3.05
2023-05-14T17:37:00.863Z,4.57
2023-05-14T17:39:29.336Z,3.55
2023-05-14T17:41:58.869Z,2.72
2023-05-14T17:44:27.064Z,3.75
2023-05-14T17:46:55.287Z,2.50
2023-05-14T17:49:23.345Z,5.20
2023-05-14T17:51:51.614Z,4.45
2023-05-14T17:54:19.649Z,3.13
2023-05-14T17:56:50.934Z,4.68
2023-05-14T17:59:21.957Z,2.60
2023-05-14T18:01:51.938Z,4.43
2023-05-14T18:04:20.319Z,4.25
2023-05-14T18:06:48.402Z,4.10
2023-05-14T18:09:16.475Z,2.85
2023-05-14T18:11:45.044Z,5.05
2023-05-14T18:14:13.128Z,4.72
2023-05-14T18:16:42.927Z,3.67
2023-05-14T18:19:11.481Z,3.67
2023-05-14T18:21:39.625Z,4.72
2023-05-14T18:24:08.712Z,2.28
2023-05-14T18:26:36.890Z,4.57
2023-05-14T18:29:05.256Z,2.25
2023-05-14T18:31:33.384Z,3.55
2023-05-14T18:34:03.100Z,3.33
2023-05-14T18:36:31.368Z,3.83
2023-05-14T18:38:59.408Z,3.88
2023-05-14T18:41:27.868Z,2.97
2023-05-14T18:43:55.916Z,3.13
2023-05-14T18:46:24.385Z,4.10
2023-05-14T18:48:52.623Z,3.25
2023-05-14T18:51:22.152Z,2.72
2023-05-14T18:53:50.269Z,3.63
2023-05-14T18:56:18.456Z,2.63
2023-05-14T18:58:46.507Z,2.83
2023-05-14T19:01:14.553Z,3.58
2023-05-14T19:03:42.880Z,3.55
2023-05-14T19:06:11.264Z,4.32
2023-05-14T19:08:41.336Z,5.60
2023-05-14T19:11:09.600Z,5.15
2023-05-14T19:13:37.670Z,3.72
2023-05-14T19:16:06.720Z,4.32
2023-05-14T19:18:35.331Z,5.57
2023-05-14T19:21:03.622Z,7.28
2023-05-14T19:23:32.728Z,7.10
2023-05-14T19:26:02.568Z,9.75
2023-05-14T19:28:30.858Z,7.35
2023-05-14T19:30:58.946Z,7.55
2023-05-14T19:33:27.801Z,7.53
2023-05-14T19:35:56.481Z,7.38
2023-05-14T19:38:24.868Z,9.23
2023-05-14T19:40:56.697Z,8.73
2023-05-14T19:43:27.981Z,7.25
2023-05-14T19:45:56.129Z,7.63
2023-05-14T19:48:24.493Z,4.28
2023-05-14T19:50:52.881Z,6.50
2023-05-14T19:53:21.223Z,5.22
2023-05-14T19:55:49.242Z,4.63
2023-05-14T19:58:17.521Z,9.88
2023-05-14T20:00:47.377Z,5.55
2023-05-14T20:03:16.166Z,5.43
2023-05-14T20:05:46.134Z,5.57
2023-05-14T20:08:14.342Z,4.47
2023-05-14T20:10:42.544Z,4.43
2023-05-14T20:13:10.762Z,3.35
2023-05-14T20:15:38.844Z,4.78
2023-05-14T20:18:08.608Z,5.47
2023-05-14T20:20:36.776Z,4.68
2023-05-14T20:23:05.008Z,3.35
2023-05-14T20:25:33.581Z,5.05
2023-05-14T20:28:01.941Z,3.42
2023-05-14T20:30:30.166Z,3.92
2023-05-14T20:32:58.383Z,4.32
2023-05-14T20:35:28.197Z,5.07
2023-05-14T20:37:56.348Z,4.63
2023-05-14T20:40:25.412Z,7.65
2023-05-14T20:42:53.539Z,5.15
2023-05-14T20:45:21.921Z,7.68
2023-05-14T20:47:50.063Z,4.95
2023-05-14T20:50:18.452Z,4.30
2023-05-14T20:52:48.207Z,3.85
2023-05-14T20:55:16.404Z,5.40
2023-05-14T20:57:44.738Z,3.67
2023-05-14T21:00:14.004Z,4.80
2023-05-14T21:02:42.312Z,5.20
2023-05-14T21:05:10.996Z,4.20
2023-05-14T21:07:39.552Z,4.25
2023-05-14T21:10:10.242Z,4.88
2023-05-14T21:12:38.388Z,3.92
2023-05-14T21:15:07.537Z,6.70
2023-05-14T21:17:35.634Z,4.38
2023-05-14T21:20:04.038Z,4.53
2023-05-14T21:22:32.096Z,3.90
2023-05-14T21:25:00.403Z,8.50
2023-05-14T21:27:29.966Z,7.05
2023-05-14T21:29:58.400Z,4.30
2023-05-14T21:32:26.527Z,4.00
2023-05-14T21:34:54.873Z,5.53
2023-05-14T21:37:23.439Z,5.82
2023-05-14T21:39:51.921Z,4.45
2023-05-14T21:42:21.211Z,4.15
2023-05-14T21:44:50.807Z,4.65
2023-05-14T21:47:21.074Z,6.75
2023-05-14T21:49:49.480Z,4.75
2023-05-14T21:52:17.716Z,4.15
2023-05-14T21:54:46.061Z,4.15
2023-05-14T21:57:14.189Z,5.75
2023-05-14T21:59:42.755Z,5.63
2023-05-14T22:02:12.352Z,6.63
2023-05-14T22:04:40.605Z,4.57
2023-05-14T22:07:08.880Z,5.50
2023-05-14T22:09:36.958Z,5.05
2023-05-14T22:12:05.889Z,4.10
2023-05-14T22:14:34.242Z,4.35
2023-05-14T22:17:02.497Z,5.68
2023-05-14T22:19:32.091Z,4.60
2023-05-14T22:22:00.519Z,4.60
2023-05-14T22:24:28.734Z,5.53
2023-05-14T22:26:56.783Z,5.80
2023-05-14T22:29:24.992Z,4.95
2023-05-14T22:31:53.153Z,5.65
2023-05-14T22:34:21.274Z,6.40
2023-05-14T22:36:50.886Z,6.82
2023-05-14T22:39:18.957Z,4.50
2023-05-14T22:41:47.278Z,4.80
2023-05-14T22:44:15.452Z,7.25
2023-05-14T22:46:43.845Z,5.15
2023-05-14T22:49:13.582Z,5.85
2023-05-14T22:51:42.390Z,5.53
2023-05-14T22:54:11.972Z,7.25
2023-05-14T22:56:40.324Z,7.07
2023-05-14T22:59:10.286Z,5.88
2023-05-14T23:01:38.654Z,4.88
2023-05-14T23:04:07.007Z,5.28
2023-05-14T23:06:38.248Z,5.00
2023-05-14T23:09:06.482Z,6.18
2023-05-14T23:11:36.002Z,5.55
2023-05-14T23:14:07.104Z,5.07
2023-05-14T23:16:35.340Z,7.60
2023-05-14T23:19:03.716Z,5.82
2023-05-14T23:21:32.241Z,7.30
2023-05-14T23:24:00.308Z,5.57
2023-05-14T23:26:28.738Z,7.50
2023-05-14T23:28:58.121Z,7.35
2023-05-14T23:31:26.234Z,6.15
2023-05-14T23:33:54.367Z,8.38
2023-05-14T23:36:22.542Z,5.80
2023-05-14T23:38:50.981Z,5.20
2023-05-14T23:41:19.096Z,6.05
2023-05-14T23:43:48.883Z,6.47
2023-05-14T23:46:18.642Z,5.72
2023-05-14T23:48:47.008Z,6.28
2023-05-14T23:51:15.111Z,6.85
2023-05-14T23:53:45.976Z,6.50
2023-05-14T23:56:14.171Z,5.95
2023-05-14T23:58:42.610Z,5.53
